Time;durP1;ratioP1;P1;durP2;ratioP2;P2;SDS_P1;SDS_P2;PMS_P1;PMS_P2;Temp;Humidity;BMP_temperature;BMP_pressure;BME280_temperature;BME280_humidity;BME280_pressure;Samples;Min_cycle;Max_cycle;Signal;HPM_P1;HPM_P2
2021/03/12 00:01:54;;;;;;;;;;;18.60;38.80;;;;;;491640;240;1253;-43
2021/03/12 00:03:55;;;;;;;;;;;18.70;38.80;;;;;;492121;240;1049;-44
2021/03/12 00:05:56;;;;;;;;;;;18.70;38.90;;;;;;491966;240;1259;-44
2021/03/12 00:07:58;;;;;;;;;;;18.60;38.90;;;;;;491636;240;1053;-44
2021/03/12 00:09:59;;;;;;;;;;;18.60;39.00;;;;;;491654;240;1033;-44
2021/03/12 00:12:00;;;;;;;;;;;18.50;39.10;;;;;;491665;240;1220;-44
2021/03/12 00:14:01;;;;;;;;;;;18.50;39.10;;;;;;491598;240;1063;-43
2021/03/12 00:16:03;;;;;;;;;;;18.50;39.10;;;;;;491900;240;1125;-43
2021/03/12 00:18:04;;;;;;;;;;;18.50;39.10;;;;;;492074;240;2199;-44
2021/03/12 00:20:05;;;;;;;;;;;18.50;39.20;;;;;;492063;240;1072;-44
2021/03/12 00:22:07;;;;;;;;;;;18.40;39.20;;;;;;491650;240;1174;-44
2021/03/12 00:24:08;;;;;;;;;;;18.40;39.20;;;;;;491740;240;1051;-44
2021/03/12 00:26:09;;;;;;;;;;;18.40;39.30;;;;;;491774;240;1014;-44
2021/03/12 00:28:10;;;;;;;;;;;18.40;39.20;;;;;;491953;240;1125;-43
2021/03/12 00:30:12;;;;;;;;;;;18.40;39.20;;;;;;492129;240;1000;-44
2021/03/12 00:32:13;;;;;;;;;;;18.40;39.30;;;;;;491590;240;1181;-44
2021/03/12 00:34:14;;;;;;;;;;;18.40;39.30;;;;;;491567;240;1267;-44
2021/03/12 00:36:15;;;;;;;;;;;18.40;39.30;;;;;;491614;240;1147;-43
2021/03/12 00:38:17;;;;;;;;;;;18.40;39.20;;;;;;491661;240;2196;-44
2021/03/12 00:40:18;;;;;;;;;;;18.30;39.30;;;;;;491964;240;1065;-43
2021/03/12 00:42:19;;;;;;;;;;;18.30;39.30;;;;;;491750;240;1059;-44
2021/03/12 00:44:21;;;;;;;;;;;18.30;39.30;;;;;;491715;240;1038;-44
2021/03/12 00:46:22;;;;;;;;;;;18.30;39.40;;;;;;491720;240;1168;-44
2021/03/12 00:48:23;;;;;;;;;;;18.30;39.40;;;;;;492162;240;1072;-44
2021/03/12 00:50:25;;;;;;;;;;;18.30;39.40;;;;;;491817;240;1028;-44
2021/03/12 00:52:26;;;;;;;;;;;18.30;39.40;;;;;;491715;240;1231;-44
2021/03/12 00:54:27;;;;;;;;;;;18.30;39.30;;;;;;491711;240;1017;-44
2021/03/12 00:56:28;;;;;;;;;;;18.30;39.30;;;;;;492008;240;1076;-44
2021/03/12 00:58:30;;;;;;;;;;;18.30;39.30;;;;;;491725;240;2132;-44
2021/03/12 01:00:31;;;;;;;;;;;18.30;39.40;;;;;;491987;240;1080;-44
2021/03/12 01:02:32;;;;;;;;;;;18.20;39.40;;;;;;491676;240;1159;-44
2021/03/12 01:04:33;;;;;;;;;;;18.30;39.40;;;;;;491652;240;1082;-43
2021/03/12 01:06:35;;;;;;;;;;;18.20;39.40;;;;;;492035;240;1170;-44
2021/03/12 01:08:36;;;;;;;;;;;18.20;39.50;;;;;;491992;240;1110;-44
2021/03/12 01:10:37;;;;;;;;;;;18.20;39.50;;;;;;492085;240;1044;-43
2021/03/12 01:12:39;;;;;;;;;;;18.20;39.50;;;;;;491801;240;1037;-44
2021/03/12 01:14:40;;;;;;;;;;;18.20;39.50;;;;;;491709;240;1031;-44
2021/03/12 01:16:41;;;;;;;;;;;18.10;39.50;;;;;;491576;240;1144;-44
2021/03/12 01:18:42;;;;;;;;;;;18.10;39.50;;;;;;491752;240;2145;-44
2021/03/12 01:20:44;;;;;;;;;;;18.10;39.50;;;;;;491772;240;1035;-44
2021/03/12 01:22:45;;;;;;;;;;;18.10;39.50;;;;;;491919;240;1656;-43
2021/03/12 01:24:46;;;;;;;;;;;18.10;39.60;;;;;;491781;240;1041;-44
2021/03/12 01:26:47;;;;;;;;;;;18.10;39.60;;;;;;491622;240;1019;-44
2021/03/12 01:28:49;;;;;;;;;;;18.10;39.60;;;;;;491661;240;1117;-44
2021/03/12 01:30:50;;;;;;;;;;;18.10;39.60;;;;;;491629;240;1043;-44
2021/03/12 01:32:51;;;;;;;;;;;18.10;39.60;;;;;;491622;240;1214;-43
2021/03/12 01:34:53;;;;;;;;;;;18.10;39.60;;;;;;491825;240;1009;-44
2021/03/12 01:36:54;;;;;;;;;;;18.00;39.60;;;;;;491729;240;1187;-44
2021/03/12 01:38:55;;;;;;;;;;;18.00;39.60;;;;;;491618;240;2188;-44
2021/03/12 01:40:56;;;;;;;;;;;18.00;39.70;;;;;;491937;240;1538;-44
2021/03/12 01:42:58;;;;;;;;;;;18.10;39.60;;;;;;491988;240;1144;-44
2021/03/12 01:44:59;;;;;;;;;;;18.00;39.60;;;;;;492139;240;1040;-44
2021/03/12 01:47:00;;;;;;;;;;;18.00;39.60;;;;;;491657;240;1329;-43
2021/03/12 01:49:02;;;;;;;;;;;18.10;39.60;;;;;;491635;240;1038;-44
2021/03/12 01:51:03;;;;;;;;;;;18.10;39.60;;;;;;491877;240;1068;-44
2021/03/12 01:53:04;;;;;;;;;;;18.00;39.60;;;;;;491752;240;1210;-43
2021/03/12 01:55:05;;;;;;;;;;;18.00;39.60;;;;;;491634;240;1046;-44
2021/03/12 01:57:07;;;;;;;;;;;18.00;39.70;;;;;;491719;240;1244;-44
2021/03/12 01:59:08;;;;;;;;;;;18.00;39.60;;;;;;492077;240;2200;-44
2021/03/12 02:01:09;;;;;;;;;;;18.00;39.60;;;;;;491764;240;1045;-44
2021/03/12 02:03:11;;;;;;;;;;;18.00;39.70;;;;;;491705;240;1165;-43
2021/03/12 02:05:12;;;;;;;;;;;18.00;39.60;;;;;;492112;240;1052;-44
2021/03/12 02:07:13;;;;;;;;;;;18.00;39.60;;;;;;491735;240;1204;-44
2021/03/12 02:09:15;;;;;;;;;;;18.00;39.50;;;;;;492127;240;1104;-44
2021/03/12 02:11:16;;;;;;;;;;;18.00;39.60;;;;;;491702;241;2249;-44
2021/03/12 02:13:17;;;;;;;;;;;18.00;39.70;;;;;;492112;240;1058;-43
2021/03/12 02:15:18;;;;;;;;;;;17.90;39.70;;;;;;491689;240;1223;-43
2021/03/12 02:17:19;;;;;;;;;;;18.00;39.70;;;;;;491798;240;1143;-44
2021/03/12 02:19:21;;;;;;;;;;;18.00;39.70;;;;;;492149;240;2180;-44
2021/03/12 02:21:22;;;;;;;;;;;18.00;39.70;;;;;;491618;240;1204;-44
2021/03/12 02:23:23;;;;;;;;;;;18.00;39.60;;;;;;492146;240;1037;-44
2021/03/12 02:25:25;;;;;;;;;;;18.30;39.00;;;;;;491653;240;1074;-44
2021/03/12 02:27:26;;;;;;;;;;;18.70;38.20;;;;;;491579;240;1166;-44
2021/03/12 02:29:27;;;;;;;;;;;19.00;37.60;;;;;;492100;240;1057;-44
2021/03/12 02:31:29;;;;;;;;;;;19.20;37.20;;;;;;491666;240;1411;-44
2021/03/12 02:33:30;;;;;;;;;;;19.40;36.90;;;;;;491752;240;1151;-44
2021/03/12 02:35:31;;;;;;;;;;;19.50;36.60;;;;;;491684;240;1060;-44
2021/03/12 02:37:32;;;;;;;;;;;19.60;36.40;;;;;;491609;240;1061;-44
2021/03/12 02:39:34;;;;;;;;;;;19.70;36.30;;;;;;491587;240;2172;-44
2021/03/12 02:41:35;;;;;;;;;;;19.70;36.10;;;;;;491528;240;1488;-44
2021/03/12 02:43:36;;;;;;;;;;;19.80;36.10;;;;;;491969;240;1104;-44
2021/03/12 02:45:37;;;;;;;;;;;19.80;35.90;;;;;;491786;240;1183;-44
2021/03/12 02:47:39;;;;;;;;;;;19.90;35.90;;;;;;491562;240;1166;-44
2021/03/12 02:49:40;;;;;;;;;;;19.90;35.80;;;;;;492115;240;1107;-44
2021/03/12 02:51:41;;;;;;;;;;;20.00;35.80;;;;;;491557;240;1177;-44
2021/03/12 02:53:43;;;;;;;;;;;20.00;35.70;;;;;;492091;240;1067;-44
2021/03/12 02:55:44;;;;;;;;;;;20.10;35.60;;;;;;491862;240;1146;-44
2021/03/12 02:57:45;;;;;;;;;;;20.10;35.50;;;;;;491720;240;1167;-44
2021/03/12 02:59:46;;;;;;;;;;;20.20;35.50;;;;;;491646;240;2152;-44
2021/03/12 03:01:48;;;;;;;;;;;20.20;35.40;;;;;;491630;240;1465;-44
2021/03/12 03:03:49;;;;;;;;;;;20.20;35.40;;;;;;491658;240;1137;-44
2021/03/12 03:05:50;;;;;;;;;;;20.20;35.30;;;;;;491782;240;1581;-44
2021/03/12 03:07:52;;;;;;;;;;;20.30;35.30;;;;;;491557;240;1515;-44
2021/03/12 03:09:53;;;;;;;;;;;20.30;35.30;;;;;;491730;240;1019;-44
2021/03/12 03:11:54;;;;;;;;;;;20.30;35.20;;;;;;491634;240;1155;-44
2021/03/12 03:13:55;;;;;;;;;;;20.30;35.20;;;;;;491682;240;1045;-44
2021/03/12 03:15:57;;;;;;;;;;;20.40;35.20;;;;;;491634;240;1160;-44
2021/03/12 03:17:58;;;;;;;;;;;20.40;35.10;;;;;;491641;240;1136;-44
2021/03/12 03:19:59;;;;;;;;;;;20.40;35.10;;;;;;491970;240;2140;-44
2021/03/12 03:22:01;;;;;;;;;;;20.40;35.10;;;;;;491719;240;1650;-44
2021/03/12 03:24:02;;;;;;;;;;;20.40;35.10;;;;;;491917;240;1070;-44
2021/03/12 03:26:03;;;;;;;;;;;20.40;35.00;;;;;;491727;240;1049;-44
2021/03/12 03:28:04;;;;;;;;;;;20.50;35.10;;;;;;491649;240;1109;-43
2021/03/12 03:30:06;;;;;;;;;;;20.50;35.00;;;;;;492143;240;1085;-44
2021/03/12 03:32:07;;;;;;;;;;;20.50;35.00;;;;;;491749;240;1064;-44
2021/03/12 03:34:08;;;;;;;;;;;20.50;35.00;;;;;;491645;240;1117;-44
2021/03/12 03:36:10;;;;;;;;;;;20.50;34.90;;;;;;491586;240;1081;-44
2021/03/12 03:38:11;;;;;;;;;;;20.50;34.90;;;;;;491652;240;1051;-44
2021/03/12 03:40:12;;;;;;;;;;;20.60;34.90;;;;;;491808;240;2113;-44
2021/03/12 03:42:13;;;;;;;;;;;20.60;34.90;;;;;;491750;240;1076;-44
2021/03/12 03:44:15;;;;;;;;;;;20.60;34.80;;;;;;491665;240;1063;-44
2021/03/12 03:46:16;;;;;;;;;;;20.60;34.80;;;;;;491590;240;1204;-44
2021/03/12 03:48:17;;;;;;;;;;;20.70;34.80;;;;;;491659;240;1181;-44
2021/03/12 03:50:18;;;;;;;;;;;20.70;34.80;;;;;;492077;240;1080;-44
2021/03/12 03:52:20;;;;;;;;;;;20.70;34.80;;;;;;491691;240;1101;-44
2021/03/12 03:54:21;;;;;;;;;;;20.70;34.70;;;;;;492108;240;1031;-44
2021/03/12 03:56:22;;;;;;;;;;;20.70;34.70;;;;;;491693;240;1101;-44
2021/03/12 03:58:25;;;;;;;;;;;20.70;34.70;;;;;;491982;240;1082;-44
2021/03/12 04:00:26;;;;;;;;;;;20.70;34.70;;;;;;491706;240;2195;-44
2021/03/12 04:02:28;;;;;;;;;;;20.80;34.70;;;;;;491700;240;1034;-44
2021/03/12 04:04:29;;;;;;;;;;;20.80;34.70;;;;;;491676;240;1213;-45
2021/03/12 04:06:30;;;;;;;;;;;20.80;34.70;;;;;;491818;240;1077;-44
2021/03/12 04:08:32;;;;;;;;;;;20.80;34.70;;;;;;491649;240;1042;-44
2021/03/12 04:10:33;;;;;;;;;;;20.80;34.60;;;;;;491828;240;1013;-44
2021/03/12 04:12:34;;;;;;;;;;;20.80;34.60;;;;;;491690;240;1032;-44
2021/03/12 04:14:35;;;;;;;;;;;20.80;34.60;;;;;;491681;240;1317;-44
2021/03/12 04:16:37;;;;;;;;;;;20.80;34.70;;;;;;491498;240;1158;-44
2021/03/12 04:18:38;;;;;;;;;;;20.80;34.70;;;;;;491827;240;1309;-44
2021/03/12 04:20:39;;;;;;;;;;;20.80;34.60;;;;;;491572;240;2192;-44
2021/03/12 04:22:41;;;;;;;;;;;20.80;34.70;;;;;;491694;240;1087;-44
2021/03/12 04:24:42;;;;;;;;;;;20.90;34.70;;;;;;491815;240;1039;-44
2021/03/12 04:26:43;;;;;;;;;;;20.90;34.60;;;;;;491615;240;1062;-44
2021/03/12 04:28:44;;;;;;;;;;;20.90;34.60;;;;;;491792;240;1047;-44
2021/03/12 04:30:46;;;;;;;;;;;20.90;34.60;;;;;;491955;240;1215;-44
2021/03/12 04:32:47;;;;;;;;;;;20.90;34.60;;;;;;491653;240;1143;-44
2021/03/12 04:34:48;;;;;;;;;;;21.00;34.60;;;;;;491622;240;1183;-44
2021/03/12 04:36:49;;;;;;;;;;;21.00;34.50;;;;;;491550;240;1240;-44
2021/03/12 04:38:51;;;;;;;;;;;21.00;34.50;;;;;;491830;240;2249;-44
2021/03/12 04:40:52;;;;;;;;;;;20.90;34.50;;;;;;491657;240;1105;-44
2021/03/12 04:42:53;;;;;;;;;;;21.00;34.50;;;;;;492032;240;1088;-44
2021/03/12 04:44:55;;;;;;;;;;;21.00;34.50;;;;;;491807;240;1066;-44
2021/03/12 04:46:56;;;;;;;;;;;21.00;34.50;;;;;;491590;240;1099;-44
2021/03/12 04:48:58;;;;;;;;;;;21.00;34.50;;;;;;491722;240;1080;-44
2021/03/12 04:50:59;;;;;;;;;;;21.00;34.50;;;;;;491580;240;1203;-44
2021/03/12 04:53:00;;;;;;;;;;;21.00;34.40;;;;;;491557;240;1135;-44
2021/03/12 04:55:01;;;;;;;;;;;21.10;34.50;;;;;;491617;240;1056;-44
2021/03/12 04:57:03;;;;;;;;;;;21.00;34.40;;;;;;491582;240;1348;-44
2021/03/12 04:59:04;;;;;;;;;;;21.00;34.40;;;;;;491611;240;2138;-44
2021/03/12 05:01:06;;;;;;;;;;;21.10;34.50;;;;;;491601;240;1125;-44
2021/03/12 05:03:07;;;;;;;;;;;21.10;34.50;;;;;;491836;240;1065;-44
2021/03/12 05:05:08;;;;;;;;;;;21.10;34.40;;;;;;491858;240;1158;-44
2021/03/12 05:07:10;;;;;;;;;;;21.10;34.40;;;;;;491737;240;1075;-44
2021/03/12 05:09:11;;;;;;;;;;;21.10;34.40;;;;;;491797;240;1037;-44
2021/03/12 05:11:12;;;;;;;;;;;21.10;34.40;;;;;;491602;240;1076;-44
2021/03/12 05:13:13;;;;;;;;;;;21.10;34.40;;;;;;491639;240;1085;-44
2021/03/12 05:15:15;;;;;;;;;;;21.20;34.40;;;;;;491581;240;1033;-44
2021/03/12 05:17:16;;;;;;;;;;;21.20;34.40;;;;;;491678;240;1085;-44
2021/03/12 05:19:17;;;;;;;;;;;21.20;34.40;;;;;;491569;240;2128;-44
2021/03/12 05:21:19;;;;;;;;;;;21.20;34.40;;;;;;491702;240;1209;-44
2021/03/12 05:23:20;;;;;;;;;;;21.20;34.40;;;;;;491568;240;1064;-44
2021/03/12 05:25:21;;;;;;;;;;;21.20;34.40;;;;;;491575;240;1034;-44
2021/03/12 05:27:22;;;;;;;;;;;21.20;34.40;;;;;;491550;240;1049;-44
2021/03/12 05:29:24;;;;;;;;;;;21.20;34.40;;;;;;491595;240;1353;-44
2021/03/12 05:31:25;;;;;;;;;;;21.20;34.40;;;;;;491400;240;1183;-44
2021/03/12 05:33:26;;;;;;;;;;;21.20;34.40;;;;;;491520;240;1061;-44
2021/03/12 05:35:27;;;;;;;;;;;21.20;34.40;;;;;;491399;240;1184;-44
2021/03/12 05:37:29;;;;;;;;;;;21.20;34.40;;;;;;491469;240;1081;-44
2021/03/12 05:39:30;;;;;;;;;;;21.20;34.40;;;;;;491633;240;2140;-44
2021/03/12 05:41:31;;;;;;;;;;;21.20;34.40;;;;;;491555;240;1126;-44
2021/03/12 05:43:33;;;;;;;;;;;21.20;34.40;;;;;;491504;240;1060;-44
2021/03/12 05:45:34;;;;;;;;;;;21.20;34.40;;;;;;491717;240;1030;-44
2021/03/12 05:47:35;;;;;;;;;;;21.20;34.30;;;;;;491519;240;1212;-44
2021/03/12 05:49:36;;;;;;;;;;;21.20;34.40;;;;;;491602;240;1179;-43
2021/03/12 05:51:38;;;;;;;;;;;21.20;34.40;;;;;;491579;240;1168;-44
2021/03/12 05:53:39;;;;;;;;;;;21.20;34.40;;;;;;491579;240;977;-44
2021/03/12 05:55:40;;;;;;;;;;;21.20;34.40;;;;;;491463;240;1259;-44
2021/03/12 05:57:41;;;;;;;;;;;21.20;34.40;;;;;;491458;240;1184;-44
2021/03/12 05:59:43;;;;;;;;;;;21.20;34.40;;;;;;491522;240;2184;-44
2021/03/12 06:01:44;;;;;;;;;;;21.20;34.40;;;;;;491360;240;1109;-44
2021/03/12 06:03:46;;;;;;;;;;;21.20;34.40;;;;;;491494;240;1059;-44
2021/03/12 06:05:48;;;;;;;;;;;21.20;34.40;;;;;;491434;240;1129;-44
2021/03/12 06:07:50;;;;;;;;;;;21.30;34.40;;;;;;491422;240;1086;-44
2021/03/12 06:09:51;;;;;;;;;;;21.20;34.40;;;;;;491481;240;1041;-44
2021/03/12 06:11:52;;;;;;;;;;;21.30;34.40;;;;;;491636;240;1114;-44
2021/03/12 06:13:54;;;;;;;;;;;21.30;34.40;;;;;;491435;240;1072;-44
2021/03/12 06:15:55;;;;;;;;;;;21.20;34.40;;;;;;491596;240;1111;-44
2021/03/12 06:17:56;;;;;;;;;;;21.30;34.40;;;;;;491400;240;1318;-44
2021/03/12 06:19:57;;;;;;;;;;;21.30;34.40;;;;;;491308;240;2203;-44
2021/03/12 06:21:59;;;;;;;;;;;21.30;34.30;;;;;;491314;240;1167;-44
2021/03/12 06:24:00;;;;;;;;;;;21.30;34.40;;;;;;491396;240;1059;-44
2021/03/12 06:26:01;;;;;;;;;;;21.30;34.40;;;;;;491330;240;1222;-44
2021/03/12 06:28:02;;;;;;;;;;;21.30;34.40;;;;;;491292;240;1223;-44
2021/03/12 06:30:04;;;;;;;;;;;21.30;34.40;;;;;;491330;240;1067;-43
2021/03/12 06:32:05;;;;;;;;;;;21.30;34.30;;;;;;491263;240;1362;-44
2021/03/12 06:34:06;;;;;;;;;;;21.30;34.30;;;;;;491154;240;1132;-44
2021/03/12 06:36:08;;;;;;;;;;;21.30;34.30;;;;;;491165;240;1383;-44
2021/03/12 06:38:09;;;;;;;;;;;21.30;34.30;;;;;;491134;240;1055;-44
2021/03/12 06:40:10;;;;;;;;;;;21.30;34.30;;;;;;491078;240;2179;-44
2021/03/12 06:42:11;;;;;;;;;;;21.30;34.30;;;;;;491054;240;1191;-44
2021/03/12 06:44:13;;;;;;;;;;;21.30;34.40;;;;;;491119;240;1050;-44
2021/03/12 06:46:14;;;;;;;;;;;21.40;34.40;;;;;;491176;240;1214;-44
2021/03/12 06:48:15;;;;;;;;;;;21.40;34.40;;;;;;491169;240;1151;-44
2021/03/12 06:50:16;;;;;;;;;;;21.40;34.40;;;;;;491149;240;1156;-44
2021/03/12 06:52:18;;;;;;;;;;;21.40;34.40;;;;;;491127;240;1084;-44
2021/03/12 06:54:19;;;;;;;;;;;21.30;34.40;;;;;;491167;240;1114;-44
2021/03/12 06:56:20;;;;;;;;;;;21.40;34.40;;;;;;491134;240;1103;-44
2021/03/12 06:58:22;;;;;;;;;;;21.40;34.40;;;;;;491223;240;1033;-44
2021/03/12 07:00:23;;;;;;;;;;;21.40;34.40;;;;;;491110;240;2208;-44
2021/03/12 07:02:24;;;;;;;;;;;21.40;34.40;;;;;;491108;240;1083;-44
2021/03/12 07:04:26;;;;;;;;;;;21.40;34.30;;;;;;491163;240;1068;-44
2021/03/12 07:06:27;;;;;;;;;;;21.40;34.40;;;;;;491027;240;1311;-44
2021/03/12 07:08:28;;;;;;;;;;;21.40;34.40;;;;;;491097;240;1079;-44
2021/03/12 07:10:30;;;;;;;;;;;21.40;34.40;;;;;;491178;240;1044;-44
2021/03/12 07:12:31;;;;;;;;;;;21.40;34.30;;;;;;491280;240;1193;-44
2021/03/12 07:14:33;;;;;;;;;;;21.50;34.40;;;;;;491128;240;1118;-44
2021/03/12 07:16:34;;;;;;;;;;;21.40;34.30;;;;;;491098;240;1652;-44
2021/03/12 07:18:35;;;;;;;;;;;21.40;34.30;;;;;;491082;240;1071;-44
2021/03/12 07:20:36;;;;;;;;;;;21.40;34.30;;;;;;491000;240;2192;-44
2021/03/12 07:22:38;;;;;;;;;;;21.40;34.40;;;;;;491060;240;1074;-44
2021/03/12 07:24:39;;;;;;;;;;;21.40;34.30;;;;;;491057;240;1285;-44
2021/03/12 07:26:40;;;;;;;;;;;21.40;34.40;;;;;;491145;240;1292;-44
2021/03/12 07:28:42;;;;;;;;;;;21.40;34.40;;;;;;491108;240;1083;-44
2021/03/12 07:30:43;;;;;;;;;;;21.40;34.40;;;;;;491141;240;1079;-44
2021/03/12 07:32:44;;;;;;;;;;;21.50;34.30;;;;;;491131;240;1097;-44
2021/03/12 07:34:45;;;;;;;;;;;21.50;34.40;;;;;;491012;240;1170;-44
2021/03/12 07:36:47;;;;;;;;;;;21.40;34.30;;;;;;490962;240;1334;-44
2021/03/12 07:38:48;;;;;;;;;;;21.50;34.40;;;;;;491120;240;1121;-44
2021/03/12 07:40:49;;;;;;;;;;;21.50;34.30;;;;;;491056;240;2157;-44
2021/03/12 07:42:50;;;;;;;;;;;21.50;34.30;;;;;;491015;240;1062;-44
2021/03/12 07:44:52;;;;;;;;;;;21.50;34.30;;;;;;491017;240;1043;-44
2021/03/12 07:46:53;;;;;;;;;;;21.50;34.40;;;;;;490844;240;1678;-44
2021/03/12 07:48:54;;;;;;;;;;;21.50;34.40;;;;;;491002;240;1058;-44
2021/03/12 07:50:56;;;;;;;;;;;21.50;34.40;;;;;;490970;240;1191;-44
2021/03/12 07:52:57;;;;;;;;;;;21.50;34.40;;;;;;490760;240;1042;-44
2021/03/12 07:54:58;;;;;;;;;;;21.50;34.30;;;;;;490624;240;1204;-44
2021/03/12 07:57:00;;;;;;;;;;;21.50;34.40;;;;;;490640;240;1184;-44
2021/03/12 07:59:01;;;;;;;;;;;21.50;34.40;;;;;;490885;240;1052;-44
2021/03/12 08:01:02;;;;;;;;;;;21.50;34.30;;;;;;490661;240;2184;-44
2021/03/12 08:03:05;;;;;;;;;;;21.50;34.30;;;;;;490700;240;1105;-44
2021/03/12 08:05:05;;;;;;;;;;;21.50;34.40;;;;;;490805;242;1456;-44
2021/03/12 08:07:06;;;;;;;;;;;21.50;34.30;;;;;;490973;240;1151;-44
2021/03/12 08:09:08;;;;;;;;;;;21.50;34.30;;;;;;490809;240;1078;-44
2021/03/12 08:11:09;;;;;;;;;;;21.50;34.40;;;;;;490818;240;1093;-44
2021/03/12 08:13:11;;;;;;;;;;;21.50;34.30;;;;;;490777;240;1115;-44
2021/03/12 08:15:12;;;;;;;;;;;21.50;34.30;;;;;;490671;240;1122;-44
2021/03/12 08:17:13;;;;;;;;;;;21.50;34.30;;;;;;490869;240;1260;-44
2021/03/12 08:19:14;;;;;;;;;;;21.50;34.30;;;;;;490843;240;1076;-44
2021/03/12 08:21:16;;;;;;;;;;;21.50;34.30;;;;;;490830;240;2184;-44
2021/03/12 08:23:17;;;;;;;;;;;21.60;34.30;;;;;;490815;240;1272;-44
2021/03/12 08:25:18;;;;;;;;;;;21.50;34.30;;;;;;490792;240;1097;-44
2021/03/12 08:27:20;;;;;;;;;;;21.50;34.30;;;;;;490917;240;1203;-44
2021/03/12 08:29:21;;;;;;;;;;;21.50;34.30;;;;;;490861;240;1091;-44
2021/03/12 08:31:22;;;;;;;;;;;21.60;34.30;;;;;;490697;240;1113;-44
2021/03/12 08:33:23;;;;;;;;;;;21.60;34.30;;;;;;490863;240;2213;-44
2021/03/12 08:35:25;;;;;;;;;;;21.60;34.30;;;;;;490811;240;1200;-44
2021/03/12 08:37:26;;;;;;;;;;;21.60;34.30;;;;;;490921;240;1151;-44
2021/03/12 08:39:27;;;;;;;;;;;21.60;34.40;;;;;;490749;240;1208;-44
2021/03/12 08:41:28;;;;;;;;;;;21.50;34.30;;;;;;490797;240;2171;-44
2021/03/12 08:43:31;;;;;;;;;;;21.60;34.30;;;;;;490689;240;1074;-44
2021/03/12 08:45:31;;;;;;;;;;;21.60;34.30;;;;;;490914;240;1863;-44
2021/03/12 08:47:32;;;;;;;;;;;21.60;34.30;;;;;;490815;240;1277;-44
2021/03/12 08:49:34;;;;;;;;;;;21.60;34.30;;;;;;490763;240;1064;-44
2021/03/12 08:51:35;;;;;;;;;;;21.60;34.30;;;;;;490736;240;1237;-44
2021/03/12 08:53:36;;;;;;;;;;;21.60;34.30;;;;;;490783;240;1182;-44
2021/03/12 08:55:37;;;;;;;;;;;21.60;34.30;;;;;;490780;240;1149;-44
2021/03/12 08:57:39;;;;;;;;;;;21.60;34.30;;;;;;490618;240;1273;-44
2021/03/12 08:59:40;;;;;;;;;;;21.60;34.30;;;;;;490734;240;1115;-44
2021/03/12 09:01:41;;;;;;;;;;;21.60;34.30;;;;;;490635;240;2192;-44
2021/03/12 09:03:47;;;;;;;;;;;21.60;34.30;;;;;;490722;240;1148;-44
2021/03/12 09:05:44;;;;;;;;;;;21.60;34.30;;;;;;490743;242;1524;-44
2021/03/12 09:07:45;;;;;;;;;;;21.60;34.30;;;;;;490771;240;1156;-45
2021/03/12 09:09:46;;;;;;;;;;;21.60;34.20;;;;;;490730;240;1755;-44
2021/03/12 09:11:48;;;;;;;;;;;21.70;34.30;;;;;;490736;240;1312;-44
2021/03/12 09:13:49;;;;;;;;;;;21.60;34.20;;;;;;490794;240;1193;-44
2021/03/12 09:15:51;;;;;;;;;;;21.70;34.20;;;;;;490873;240;1052;-45
2021/03/12 09:17:52;;;;;;;;;;;21.70;34.30;;;;;;490808;240;1145;-45
2021/03/12 09:19:53;;;;;;;;;;;21.70;34.30;;;;;;490858;240;1085;-44
2021/03/12 09:21:55;;;;;;;;;;;21.70;34.30;;;;;;490831;240;2187;-44
2021/03/12 09:23:56;;;;;;;;;;;21.70;34.20;;;;;;490866;240;1197;-45
2021/03/12 09:25:57;;;;;;;;;;;21.70;34.30;;;;;;490743;240;1230;-45
2021/03/12 09:27:58;;;;;;;;;;;21.70;34.30;;;;;;490825;240;1085;-45
2021/03/12 09:30:00;;;;;;;;;;;21.70;34.30;;;;;;490838;240;1172;-44
2021/03/12 09:32:01;;;;;;;;;;;21.60;34.20;;;;;;490795;240;1264;-44
2021/03/12 09:34:02;;;;;;;;;;;21.60;34.20;;;;;;490967;240;1090;-45
2021/03/12 09:36:04;;;;;;;;;;;21.70;34.30;;;;;;490818;240;1086;-44
2021/03/12 09:38:05;;;;;;;;;;;21.60;34.20;;;;;;490959;240;1183;-44
2021/03/12 09:40:06;;;;;;;;;;;21.70;34.30;;;;;;490833;240;1429;-44
2021/03/12 09:42:08;;;;;;;;;;;21.70;34.30;;;;;;490806;240;2156;-45
2021/03/12 09:44:09;;;;;;;;;;;21.70;34.20;;;;;;490819;240;1122;-44
2021/03/12 09:46:10;;;;;;;;;;;21.70;34.30;;;;;;490808;240;1193;-45
2021/03/12 09:48:11;;;;;;;;;;;21.70;34.30;;;;;;490819;240;1193;-44
2021/03/12 09:50:13;;;;;;;;;;;21.70;34.30;;;;;;490821;240;1155;-45
2021/03/12 09:52:14;;;;;;;;;;;21.70;34.30;;;;;;490782;240;1078;-45
2021/03/12 09:54:16;;;;;;;;;;;21.70;34.20;;;;;;490745;240;1194;-45
2021/03/12 09:56:17;;;;;;;;;;;21.70;34.30;;;;;;490668;240;1333;-45
2021/03/12 09:58:18;;;;;;;;;;;21.70;34.30;;;;;;490836;240;1154;-44
2021/03/12 10:00:19;;;;;;;;;;;21.70;34.30;;;;;;490811;240;1336;-44
2021/03/12 10:02:21;;;;;;;;;;;21.70;34.20;;;;;;490733;240;2213;-44
2021/03/12 10:04:22;;;;;;;;;;;21.30;34.80;;;;;;490830;240;1110;-45
2021/03/12 10:06:24;;;;;;;;;;;20.70;35.70;;;;;;490899;240;1167;-45
2021/03/12 10:08:25;;;;;;;;;;;20.30;36.80;;;;;;490950;240;1178;-44
2021/03/12 10:10:26;;;;;;;;;;;20.00;37.40;;;;;;490657;240;1085;-44
2021/03/12 10:12:28;;;;;;;;;;;19.70;37.80;;;;;;490764;240;1244;-44
2021/03/12 10:14:29;;;;;;;;;;;19.50;38.10;;;;;;490717;240;1127;-44
2021/03/12 10:16:30;;;;;;;;;;;19.40;38.40;;;;;;490661;240;1334;-44
2021/03/12 10:18:31;;;;;;;;;;;19.30;38.50;;;;;;490847;240;1086;-44
2021/03/12 10:20:33;;;;;;;;;;;19.20;38.80;;;;;;490798;240;1314;-44
2021/03/12 10:22:34;;;;;;;;;;;19.10;38.90;;;;;;490762;240;2184;-44
2021/03/12 10:24:35;;;;;;;;;;;19.10;39.10;;;;;;490741;240;1165;-44
2021/03/12 10:26:37;;;;;;;;;;;19.00;39.10;;;;;;490704;240;1245;-44
2021/03/12 10:28:38;;;;;;;;;;;19.00;39.20;;;;;;490733;240;1141;-44
2021/03/12 10:30:39;;;;;;;;;;;19.00;39.30;;;;;;490742;240;1106;-44
2021/03/12 10:32:41;;;;;;;;;;;18.90;39.40;;;;;;490626;240;1251;-44
2021/03/12 10:34:42;;;;;;;;;;;18.80;39.50;;;;;;490941;240;1051;-44
2021/03/12 10:36:43;;;;;;;;;;;18.80;39.50;;;;;;490870;240;1154;-44
2021/03/12 10:38:44;;;;;;;;;;;18.80;39.50;;;;;;490896;240;1268;-44
2021/03/12 10:40:46;;;;;;;;;;;18.70;39.60;;;;;;490788;240;1315;-44
2021/03/12 10:42:47;;;;;;;;;;;18.60;39.70;;;;;;490786;240;2120;-44
2021/03/12 10:44:49;;;;;;;;;;;18.60;39.80;;;;;;490701;240;1116;-44
2021/03/12 10:46:50;;;;;;;;;;;18.60;39.90;;;;;;490619;240;1095;-44
2021/03/12 10:48:51;;;;;;;;;;;18.50;39.90;;;;;;490759;240;1057;-44
2021/03/12 10:50:53;;;;;;;;;;;18.50;39.90;;;;;;490938;240;1144;-44
2021/03/12 10:52:54;;;;;;;;;;;18.50;40.00;;;;;;490936;240;1153;-44
2021/03/12 10:54:55;;;;;;;;;;;18.50;40.00;;;;;;490663;240;1134;-44
2021/03/12 10:56:56;;;;;;;;;;;18.40;40.10;;;;;;490765;240;1367;-44
2021/03/12 10:58:58;;;;;;;;;;;18.40;40.00;;;;;;490793;240;1071;-44
2021/03/12 11:00:59;;;;;;;;;;;18.50;40.00;;;;;;490770;240;2183;-44
2021/03/12 11:03:01;;;;;;;;;;;18.40;40.10;;;;;;490786;240;1044;-44
2021/03/12 11:05:02;;;;;;;;;;;18.40;40.10;;;;;;490873;240;1172;-44
2021/03/12 11:07:03;;;;;;;;;;;18.40;40.20;;;;;;490743;240;1275;-44
2021/03/12 11:09:06;;;;;;;;;;;18.30;40.10;;;;;;491084;240;1180;-44
2021/03/12 11:11:07;;;;;;;;;;;18.30;40.20;;;;;;489449;243;2008;-44
2021/03/12 11:13:07;;;;;;;;;;;18.30;40.30;;;;;;490930;241;2169;-44
2021/03/12 11:15:08;;;;;;;;;;;18.30;40.30;;;;;;490767;241;1216;-44
2021/03/12 11:17:09;;;;;;;;;;;18.30;40.30;;;;;;490802;240;1099;-44
2021/03/12 11:19:11;;;;;;;;;;;18.20;40.20;;;;;;491020;240;1181;-44
2021/03/12 11:21:12;;;;;;;;;;;18.20;40.20;;;;;;490849;240;2177;-44
2021/03/12 11:23:14;;;;;;;;;;;18.20;40.30;;;;;;491043;240;1215;-44
2021/03/12 11:25:16;;;;;;;;;;;18.20;40.30;;;;;;490733;240;1204;-44
2021/03/12 11:27:18;;;;;;;;;;;18.20;40.40;;;;;;490730;240;1233;-44
2021/03/12 11:29:19;;;;;;;;;;;18.10;40.30;;;;;;490784;240;1161;-44
2021/03/12 11:31:20;;;;;;;;;;;18.10;40.30;;;;;;490642;240;1491;-43
2021/03/12 11:33:21;;;;;;;;;;;18.10;40.30;;;;;;490676;240;1116;-44
2021/03/12 11:35:23;;;;;;;;;;;18.10;40.30;;;;;;490751;240;1167;-44
2021/03/12 11:37:24;;;;;;;;;;;18.10;40.30;;;;;;490689;240;1118;-44
2021/03/12 11:39:26;;;;;;;;;;;18.10;40.30;;;;;;490826;240;1209;-44
2021/03/12 11:41:27;;;;;;;;;;;18.10;40.40;;;;;;490894;240;2192;-44
2021/03/12 11:43:28;;;;;;;;;;;18.10;40.40;;;;;;490943;240;1065;-44
2021/03/12 11:45:29;;;;;;;;;;;18.00;40.40;;;;;;490683;240;1107;-44
2021/03/12 11:47:31;;;;;;;;;;;18.10;40.50;;;;;;490709;240;1260;-44
2021/03/12 11:49:32;;;;;;;;;;;18.00;40.40;;;;;;490714;240;1109;-44
2021/03/12 11:51:33;;;;;;;;;;;18.00;40.40;;;;;;490828;240;1366;-44
2021/03/12 11:53:35;;;;;;;;;;;18.00;40.40;;;;;;490765;240;1115;-44
2021/03/12 11:55:36;;;;;;;;;;;18.00;40.50;;;;;;490687;240;1209;-44
2021/03/12 11:57:37;;;;;;;;;;;18.00;40.50;;;;;;490727;240;1139;-44